createdAt,value
2017-07-26T00:01:52.824Z,5.60
2017-07-26T00:04:20.300Z,4.20
2017-07-26T00:06:47.837Z,5.40
2017-07-26T00:09:15.297Z,5.13
2017-07-26T00:11:43.557Z,5.60
2017-07-26T00:14:11.089Z,4.23
2017-07-26T00:16:38.525Z,3.70
2017-07-26T00:19:05.989Z,5.30
2017-07-26T00:21:33.453Z,4.87
2017-07-26T00:24:00.911Z,5.50
2017-07-26T00:26:28.396Z,5.37
2017-07-26T00:28:55.876Z,4.47
2017-07-26T00:31:24.089Z,5.53
2017-07-26T00:33:52.381Z,4.17
2017-07-26T00:36:20.597Z,4.00
2017-07-26T00:38:48.073Z,4.93
2017-07-26T00:41:15.621Z,4.20
2017-07-26T00:43:43.167Z,6.40
2017-07-26T00:46:10.704Z,4.90
2017-07-26T00:48:38.173Z,5.83
2017-07-26T00:51:06.487Z,4.80
2017-07-26T00:53:33.929Z,4.60
2017-07-26T00:56:01.409Z,4.50
2017-07-26T00:58:28.865Z,3.80
2017-07-26T01:00:57.065Z,4.30
2017-07-26T01:03:24.596Z,4.30
2017-07-26T01:05:52.033Z,4.63
2017-07-26T01:08:19.526Z,4.13
2017-07-26T01:10:47.078Z,3.80
2017-07-26T01:13:14.547Z,4.37
2017-07-26T01:15:42.777Z,3.70
2017-07-26T01:18:10.223Z,3.20
2017-07-26T01:20:37.778Z,3.20
2017-07-26T01:23:05.317Z,3.30
2017-07-26T01:25:32.847Z,3.37
2017-07-26T01:28:00.275Z,2.80
2017-07-26T01:30:27.749Z,2.60
2017-07-26T01:32:55.241Z,3.50
2017-07-26T01:35:22.684Z,3.10
2017-07-26T01:37:50.116Z,3.13
2017-07-26T01:40:17.557Z,3.87
2017-07-26T01:42:44.995Z,3.83
2017-07-26T01:45:12.513Z,3.13
2017-07-26T01:47:40.723Z,3.07
2017-07-26T01:50:08.156Z,2.80
2017-07-26T01:52:35.591Z,2.33
2017-07-26T01:55:03.032Z,2.77
2017-07-26T01:57:30.504Z,3.27
2017-07-26T01:59:57.976Z,3.13
2017-07-26T02:02:25.494Z,3.20
2017-07-26T02:04:52.918Z,2.97
2017-07-26T02:07:20.356Z,2.50
2017-07-26T02:09:47.825Z,2.70
2017-07-26T02:12:15.312Z,3.13
2017-07-26T02:14:43.545Z,3.20
2017-07-26T02:17:10.989Z,2.73
2017-07-26T02:19:38.515Z,2.73
2017-07-26T02:22:05.990Z,2.80
2017-07-26T02:24:34.280Z,2.77
2017-07-26T02:27:01.740Z,2.90
2017-07-26T02:29:29.185Z,2.63
2017-07-26T02:31:56.804Z,2.60
2017-07-26T02:34:25.014Z,3.00
2017-07-26T02:36:52.468Z,3.23
2017-07-26T02:39:19.991Z,2.70
2017-07-26T02:41:47.585Z,4.20
2017-07-26T02:44:15.827Z,2.70
2017-07-26T02:46:43.351Z,2.73
2017-07-26T02:49:10.820Z,2.80
2017-07-26T02:51:38.373Z,3.00
2017-07-26T02:54:05.800Z,2.60
2017-07-26T02:56:33.249Z,2.90
2017-07-26T02:59:00.685Z,2.70
2017-07-26T03:01:28.129Z,2.90
2017-07-26T03:03:55.663Z,2.50
2017-07-26T03:06:23.121Z,2.23
2017-07-26T03:08:50.573Z,2.00
2017-07-26T03:11:18.784Z,2.23
2017-07-26T03:13:46.271Z,2.60
2017-07-26T03:16:13.917Z,3.70
2017-07-26T03:18:41.424Z,2.20
2017-07-26T03:21:08.844Z,2.20
2017-07-26T03:23:36.353Z,2.60
2017-07-26T03:26:03.795Z,1.60
2017-07-26T03:28:31.238Z,2.20
2017-07-26T03:30:59.449Z,1.63
2017-07-26T03:33:26.884Z,2.10
2017-07-26T03:35:54.376Z,2.47
2017-07-26T03:38:21.920Z,2.00
2017-07-26T03:40:49.355Z,1.90
2017-07-26T03:43:16.800Z,1.63
2017-07-26T03:45:44.249Z,2.00
2017-07-26T03:48:11.680Z,2.50
2017-07-26T03:50:39.216Z,2.67
2017-07-26T03:53:06.677Z,1.90
2017-07-26T03:55:34.233Z,1.70
2017-07-26T03:58:02.474Z,2.20
2017-07-26T04:00:29.929Z,2.43
2017-07-26T04:02:57.368Z,2.30
2017-07-26T04:05:24.805Z,2.90
2017-07-26T04:07:52.252Z,2.20
2017-07-26T04:10:19.714Z,2.57
2017-07-26T04:12:47.929Z,2.33
2017-07-26T04:15:15.495Z,2.60
2017-07-26T04:17:42.970Z,2.20
2017-07-26T04:20:11.184Z,2.80
2017-07-26T04:22:38.780Z,2.60
2017-07-26T04:25:06.245Z,2.10
2017-07-26T04:27:33.701Z,2.50
2017-07-26T04:30:01.169Z,2.10
2017-07-26T04:32:28.637Z,2.43
2017-07-26T04:34:56.080Z,2.87
2017-07-26T04:37:24.290Z,2.17
2017-07-26T04:39:51.789Z,2.20
2017-07-26T04:42:20.108Z,2.93
2017-07-26T04:44:47.532Z,1.53
2017-07-26T04:47:14.982Z,1.57
2017-07-26T04:49:42.419Z,1.33
2017-07-26T04:52:09.873Z,1.43
2017-07-26T04:54:37.300Z,2.10
2017-07-26T04:57:04.911Z,1.90
2017-07-26T04:59:33.175Z,1.57
2017-07-26T05:02:00.601Z,1.60
2017-07-26T05:04:28.046Z,1.53
2017-07-26T05:06:55.486Z,1.50
2017-07-26T05:09:22.944Z,1.53
2017-07-26T05:11:50.394Z,1.80
2017-07-26T05:14:18.640Z,1.30
2017-07-26T05:16:46.081Z,1.30
2017-07-26T05:19:13.560Z,1.60
2017-07-26T05:21:41.805Z,1.50
2017-07-26T05:24:10.062Z,1.60
2017-07-26T05:26:37.503Z,1.17
2017-07-26T05:29:05.699Z,1.70
2017-07-26T05:31:33.144Z,1.20
2017-07-26T05:34:00.582Z,1.10
2017-07-26T05:36:28.084Z,1.70
2017-07-26T05:38:55.524Z,1.43
2017-07-26T05:41:23.079Z,1.33
2017-07-26T05:43:50.509Z,1.40
2017-07-26T05:46:17.963Z,1.40
2017-07-26T05:48:45.399Z,1.77
2017-07-26T05:51:12.874Z,1.30
2017-07-26T05:53:40.302Z,1.50
2017-07-26T05:56:08.525Z,2.00
2017-07-26T05:58:35.993Z,1.63
2017-07-26T06:01:04.216Z,1.90
2017-07-26T06:03:31.689Z,1.60
2017-07-26T06:05:59.909Z,1.63
2017-07-26T06:08:27.355Z,1.60
2017-07-26T06:10:54.853Z,2.00
2017-07-26T06:13:22.361Z,2.13
2017-07-26T06:15:49.793Z,1.73
2017-07-26T06:18:17.488Z,1.53
2017-07-26T06:20:45.688Z,1.83
2017-07-26T06:23:13.165Z,2.27
2017-07-26T06:25:40.633Z,2.07
2017-07-26T06:28:08.153Z,2.07
2017-07-26T06:30:36.367Z,2.13
2017-07-26T06:33:03.807Z,2.60
2017-07-26T06:35:31.279Z,2.43
2017-07-26T06:37:58.708Z,2.40
2017-07-26T06:40:26.152Z,2.97
2017-07-26T06:42:53.691Z,3.33
2017-07-26T06:45:21.170Z,3.83
2017-07-26T06:47:48.779Z,3.43
2017-07-26T06:50:16.929Z,3.50
2017-07-26T06:52:44.377Z,4.30
2017-07-26T06:55:11.827Z,3.97
2017-07-26T06:57:39.263Z,4.23
2017-07-26T07:00:06.719Z,3.40
2017-07-26T07:02:34.183Z,4.13
2017-07-26T07:05:02.385Z,4.63
2017-07-26T07:07:29.832Z,4.30
2017-07-26T07:09:57.264Z,4.30
2017-07-26T07:12:24.757Z,4.60
2017-07-26T07:14:52.207Z,5.23
2017-07-26T07:17:19.641Z,5.77
2017-07-26T07:19:47.092Z,6.10
2017-07-26T07:22:14.620Z,4.63
2017-07-26T07:24:42.074Z,5.20
2017-07-26T07:27:09.525Z,5.80
2017-07-26T07:29:37.030Z,6.03
2017-07-26T07:32:04.500Z,5.47
2017-07-26T07:34:32.081Z,6.87
2017-07-26T07:37:00.292Z,5.87
2017-07-26T07:39:27.813Z,7.00
2017-07-26T07:41:55.274Z,7.00
2017-07-26T07:44:22.774Z,7.57
2017-07-26T07:46:50.235Z,7.23
2017-07-26T07:49:17.656Z,8.07
2017-07-26T07:51:45.118Z,7.90
2017-07-26T07:54:12.659Z,7.97
2017-07-26T07:56:40.213Z,9.47
2017-07-26T07:59:07.659Z,8.70
2017-07-26T08:01:35.143Z,7.73
2017-07-26T08:04:02.590Z,8.60
2017-07-26T08:06:30.021Z,9.93
2017-07-26T08:08:57.581Z,8.93
2017-07-26T08:11:25.807Z,9.20
2017-07-26T08:13:53.265Z,12.17
2017-07-26T08:16:20.778Z,11.80
2017-07-26T08:18:48.219Z,10.83
2017-07-26T08:21:15.662Z,9.97
2017-07-26T08:23:43.105Z,9.07
2017-07-26T08:26:10.585Z,9.20
2017-07-26T08:28:38.031Z,9.20
2017-07-26T08:31:05.487Z,9.93
2017-07-26T08:33:33.031Z,10.50
2017-07-26T08:36:00.467Z,11.60
2017-07-26T08:38:27.945Z,9.70
2017-07-26T08:40:55.446Z,9.60
2017-07-26T08:43:23.680Z,9.40
2017-07-26T08:45:51.148Z,8.10
2017-07-26T08:48:18.593Z,7.60
2017-07-26T08:50:46.078Z,7.50
2017-07-26T08:53:13.520Z,7.73
2017-07-26T08:55:40.960Z,7.23
2017-07-26T08:58:08.415Z,8.10
2017-07-26T09:00:35.894Z,7.00
2017-07-26T09:03:03.345Z,7.20
2017-07-26T09:05:30.858Z,6.50
2017-07-26T09:07:58.471Z,6.57
2017-07-26T09:10:26.703Z,5.87
2017-07-26T09:12:54.149Z,5.63
2017-07-26T09:15:21.698Z,6.70
2017-07-26T09:17:49.136Z,7.20
2017-07-26T09:20:16.721Z,6.23
2017-07-26T09:22:44.233Z,4.93
2017-07-26T09:25:12.503Z,4.87
2017-07-26T09:27:40.721Z,5.20
2017-07-26T09:30:08.253Z,5.50
2017-07-26T09:32:35.698Z,4.40
2017-07-26T09:35:03.283Z,4.70
2017-07-26T09:37:30.781Z,3.90
2017-07-26T09:39:58.252Z,4.00
2017-07-26T09:42:25.690Z,4.10
2017-07-26T09:44:53.269Z,3.77
2017-07-26T09:47:20.711Z,4.00
2017-07-26T09:49:48.134Z,5.20
2017-07-26T09:52:15.587Z,4.07
2017-07-26T09:54:43.038Z,4.03
2017-07-26T09:57:10.572Z,4.83
2017-07-26T09:59:38.772Z,4.20
2017-07-26T10:02:06.229Z,4.13
2017-07-26T10:04:33.665Z,4.07
2017-07-26T10:07:01.176Z,4.90
2017-07-26T10:09:28.650Z,4.80
2017-07-26T10:11:56.100Z,4.23
2017-07-26T10:14:23.649Z,3.50
2017-07-26T10:16:51.064Z,3.87
2017-07-26T10:19:18.514Z,3.57
2017-07-26T10:21:46.013Z,3.80
2017-07-26T10:24:13.464Z,3.80
2017-07-26T10:26:41.713Z,3.33
2017-07-26T10:29:09.291Z,4.13
2017-07-26T10:31:36.732Z,3.83
2017-07-26T10:34:04.200Z,3.30
2017-07-26T10:36:31.757Z,3.30
2017-07-26T10:38:59.182Z,2.40
2017-07-26T10:41:26.631Z,2.57
2017-07-26T10:43:54.076Z,2.33
2017-07-26T10:46:21.550Z,2.20
2017-07-26T10:48:49.019Z,1.87
2017-07-26T10:51:17.268Z,2.50
2017-07-26T10:53:44.729Z,2.20
2017-07-26T10:56:12.949Z,2.10
2017-07-26T10:58:40.398Z,2.07
2017-07-26T11:01:07.859Z,1.87
2017-07-26T11:03:35.300Z,1.50
2017-07-26T11:06:02.740Z,1.50
2017-07-26T11:08:30.267Z,1.37
2017-07-26T11:10:58.484Z,1.90
2017-07-26T11:13:25.933Z,3.23
2017-07-26T11:15:53.377Z,2.80
2017-07-26T11:18:20.824Z,3.00
2017-07-26T11:20:48.368Z,2.60
2017-07-26T11:23:15.835Z,2.10
2017-07-26T11:25:44.032Z,2.00
2017-07-26T11:28:11.529Z,1.80
2017-07-26T11:30:38.977Z,3.30
2017-07-26T11:33:07.341Z,2.10
2017-07-26T11:35:35.614Z,1.90
2017-07-26T11:38:03.817Z,1.80
2017-07-26T11:40:31.325Z,1.80
2017-07-26T11:42:58.834Z,2.10
2017-07-26T11:45:26.275Z,1.77
2017-07-26T11:47:53.745Z,2.00
2017-07-26T11:50:21.961Z,1.90
2017-07-26T11:52:49.581Z,2.13
2017-07-26T11:55:17.014Z,2.27
2017-07-26T11:57:45.302Z,2.70
2017-07-26T12:00:12.782Z,2.90
2017-07-26T12:02:40.232Z,1.90
2017-07-26T12:05:07.678Z,2.57
2017-07-26T12:07:35.117Z,2.10
2017-07-26T12:10:02.546Z,2.10
2017-07-26T12:12:30.004Z,2.20
2017-07-26T12:14:57.550Z,2.20
2017-07-26T12:17:24.992Z,2.40
2017-07-26T12:19:52.426Z,2.03
2017-07-26T12:22:19.870Z,1.90
2017-07-26T12:24:47.304Z,2.40
2017-07-26T12:27:14.740Z,2.30
2017-07-26T12:29:42.192Z,2.63
2017-07-26T12:32:09.653Z,2.73
2017-07-26T12:34:37.920Z,2.63
2017-07-26T12:37:06.181Z,3.27
2017-07-26T12:39:34.453Z,3.40
2017-07-26T12:42:02.721Z,4.47
2017-07-26T12:44:31.142Z,3.93
2017-07-26T12:46:58.596Z,4.97
2017-07-26T12:49:26.047Z,4.00
2017-07-26T12:51:53.702Z,4.53
2017-07-26T12:54:24.339Z,4.53
2017-07-26T12:56:52.567Z,4.60
2017-07-26T12:59:20.001Z,3.97
2017-07-26T13:01:47.518Z,4.53
2017-07-26T13:04:14.957Z,4.70
2017-07-26T13:06:42.577Z,5.37
2017-07-26T13:09:10.134Z,5.13
2017-07-26T13:11:37.726Z,5.17
2017-07-26T13:14:05.187Z,6.00
2017-07-26T13:16:32.625Z,8.40
2017-07-26T13:19:00.088Z,6.70
2017-07-26T13:21:28.577Z,5.70
2017-07-26T13:23:56.107Z,6.00
2017-07-26T13:26:24.339Z,6.47
2017-07-26T13:28:51.797Z,6.20
2017-07-26T13:31:19.241Z,6.27
2017-07-26T13:33:46.681Z,6.23
2017-07-26T13:36:14.136Z,5.77
2017-07-26T13:38:42.340Z,6.50
2017-07-26T13:41:09.798Z,6.50
2017-07-26T13:43:37.245Z,7.40
2017-07-26T13:46:04.873Z,6.90
2017-07-26T13:48:32.305Z,6.10
2017-07-26T13:50:59.866Z,7.80
2017-07-26T13:53:27.305Z,6.50
2017-07-26T13:55:54.753Z,7.07
2017-07-26T13:58:22.248Z,6.93
2017-07-26T14:00:49.753Z,10.33
2017-07-26T14:03:17.191Z,7.87
2017-07-26T14:05:44.764Z,9.67
2017-07-26T14:08:12.263Z,8.10
2017-07-26T14:10:39.702Z,8.13
2017-07-26T14:13:07.925Z,8.60
2017-07-26T14:15:35.398Z,8.27
2017-07-26T14:18:02.863Z,7.80
2017-07-26T14:20:30.327Z,7.97
2017-07-26T14:22:57.764Z,8.57
2017-07-26T14:25:25.283Z,8.10
2017-07-26T14:27:53.490Z,8.20
2017-07-26T14:30:20.946Z,9.63
2017-07-26T14:32:48.401Z,8.30
2017-07-26T14:35:15.857Z,8.17
2017-07-26T14:37:43.297Z,8.20
2017-07-26T14:40:10.741Z,9.50
2017-07-26T14:42:38.200Z,8.57
2017-07-26T14:45:06.574Z,9.47
2017-07-26T14:47:34.094Z,9.80
2017-07-26T14:50:01.539Z,8.80
2017-07-26T14:52:28.977Z,9.40
2017-07-26T14:54:56.517Z,8.90
2017-07-26T14:57:23.959Z,9.00
2017-07-26T14:59:51.416Z,8.60
2017-07-26T15:02:18.879Z,7.83
2017-07-26T15:04:47.085Z,8.90
2017-07-26T15:07:14.537Z,9.20
2017-07-26T15:09:41.974Z,8.40
2017-07-26T15:12:09.490Z,8.20
2017-07-26T15:14:36.938Z,8.70
2017-07-26T15:17:04.543Z,7.63
2017-07-26T15:19:32.059Z,8.40
2017-07-26T15:21:59.524Z,8.90
2017-07-26T15:24:26.993Z,8.17
2017-07-26T15:26:55.194Z,8.20
2017-07-26T15:29:22.667Z,8.10
2017-07-26T15:31:50.129Z,8.33
2017-07-26T15:34:17.565Z,8.77
2017-07-26T15:36:45.929Z,8.47
2017-07-26T15:39:14.130Z,8.43
2017-07-26T15:41:41.575Z,8.87
2017-07-26T15:44:09.051Z,7.00
2017-07-26T15:46:36.866Z,8.50
2017-07-26T15:49:04.312Z,7.00
2017-07-26T15:51:31.797Z,7.90
2017-07-26T15:53:59.249Z,7.40
2017-07-26T15:56:26.810Z,7.03
2017-07-26T15:58:54.292Z,7.33
2017-07-26T16:01:22.509Z,7.80
2017-07-26T16:03:49.960Z,7.10
2017-07-26T16:06:17.461Z,7.37
2017-07-26T16:08:44.979Z,6.97
2017-07-26T16:11:12.439Z,7.30
2017-07-26T16:13:39.918Z,6.70
2017-07-26T16:16:07.352Z,8.97
2017-07-26T16:18:34.809Z,6.03
2017-07-26T16:21:02.336Z,6.60
2017-07-26T16:23:29.796Z,6.90
2017-07-26T16:25:57.231Z,7.50
2017-07-26T16:28:24.718Z,7.70
2017-07-26T16:30:52.176Z,6.30
2017-07-26T16:33:19.632Z,7.40
2017-07-26T16:35:47.857Z,6.80
2017-07-26T16:38:15.327Z,7.13
2017-07-26T16:40:43.597Z,6.47
2017-07-26T16:43:11.150Z,7.23
2017-07-26T16:45:38.586Z,7.87
2017-07-26T16:48:06.048Z,6.27
2017-07-26T16:50:33.540Z,7.53
2017-07-26T16:53:01.800Z,5.73
2017-07-26T16:55:29.269Z,7.70
2017-07-26T16:57:56.713Z,8.03
2017-07-26T17:00:24.197Z,7.53
2017-07-26T17:02:52.445Z,7.00
2017-07-26T17:05:19.936Z,6.73
2017-07-26T17:07:47.372Z,7.03
2017-07-26T17:10:14.811Z,7.57
2017-07-26T17:12:42.329Z,7.33
2017-07-26T17:15:09.937Z,6.80
2017-07-26T17:17:37.385Z,7.63
2017-07-26T17:20:04.822Z,7.80
2017-07-26T17:22:32.294Z,9.00
2017-07-26T17:24:59.725Z,8.60
2017-07-26T17:27:27.159Z,7.77
2017-07-26T17:29:54.985Z,9.27
2017-07-26T17:32:22.415Z,7.60
2017-07-26T17:34:49.959Z,8.60
2017-07-26T17:37:17.457Z,8.43
2017-07-26T17:39:45.097Z,7.80
2017-07-26T17:42:12.787Z,8.43
2017-07-26T17:44:40.244Z,8.40
2017-07-26T17:47:07.755Z,8.17
2017-07-26T17:49:36.004Z,7.90
2017-07-26T17:52:03.458Z,9.17
2017-07-26T17:54:31.723Z,8.60
2017-07-26T17:57:00.005Z,8.20
2017-07-26T17:59:27.643Z,9.10
2017-07-26T18:01:55.117Z,9.10
2017-07-26T18:04:22.578Z,9.90
2017-07-26T18:06:50.199Z,8.10
2017-07-26T18:09:18.489Z,8.87
2017-07-26T18:11:45.939Z,9.73
2017-07-26T18:14:13.411Z,8.77
2017-07-26T18:16:40.857Z,8.40
2017-07-26T18:19:08.323Z,8.60
2017-07-26T18:21:35.771Z,8.90
2017-07-26T18:24:03.266Z,8.70
2017-07-26T18:26:31.584Z,9.97
2017-07-26T18:28:59.111Z,9.30
2017-07-26T18:31:26.659Z,10.30
2017-07-26T18:33:54.879Z,8.80
2017-07-26T18:36:22.358Z,9.57
2017-07-26T18:38:49.814Z,9.90
2017-07-26T18:41:18.052Z,10.93
2017-07-26T18:43:45.542Z,11.20
2017-07-26T18:46:13.010Z,11.23
2017-07-26T18:48:40.480Z,11.60
2017-07-26T18:51:07.933Z,10.70
2017-07-26T18:53:35.492Z,10.70
2017-07-26T18:56:02.926Z,10.10
2017-07-26T18:58:30.386Z,9.10
2017-07-26T19:00:57.921Z,8.70
2017-07-26T19:03:25.540Z,8.97
2017-07-26T19:05:52.980Z,8.60
2017-07-26T19:08:20.429Z,9.60
2017-07-26T19:10:47.880Z,8.83
2017-07-26T19:13:15.344Z,8.97
2017-07-26T19:15:43.559Z,7.63
2017-07-26T19:18:11.123Z,8.87
2017-07-26T19:20:38.609Z,9.20
2017-07-26T19:23:06.807Z,8.67
2017-07-26T19:25:34.251Z,8.10
2017-07-26T19:28:01.748Z,8.70
2017-07-26T19:30:29.993Z,9.63
2017-07-26T19:32:57.435Z,7.63
2017-07-26T19:35:24.908Z,9.00
2017-07-26T19:37:53.136Z,8.27
2017-07-26T19:40:20.695Z,8.93
2017-07-26T19:42:48.145Z,8.53
2017-07-26T19:45:16.340Z,8.77
2017-07-26T19:47:43.803Z,8.97
2017-07-26T19:50:11.244Z,8.93
2017-07-26T19:52:38.718Z,9.40
2017-07-26T19:55:06.182Z,10.20
2017-07-26T19:57:34.487Z,9.73
2017-07-26T20:00:02.071Z,10.37
2017-07-26T20:02:29.496Z,8.80
2017-07-26T20:04:57.056Z,10.80
2017-07-26T20:07:24.593Z,10.33
2017-07-26T20:09:52.052Z,9.20
2017-07-26T20:12:19.493Z,8.47
2017-07-26T20:14:47.042Z,9.27
2017-07-26T20:17:14.615Z,9.50
2017-07-26T20:19:42.115Z,9.50
2017-07-26T20:22:09.580Z,11.63
2017-07-26T20:24:37.852Z,9.30
2017-07-26T20:27:06.064Z,10.33
2017-07-26T20:29:33.559Z,14.53
2017-07-26T20:32:02.105Z,13.13
2017-07-26T20:34:30.317Z,9.57
2017-07-26T20:36:57.761Z,9.13
2017-07-26T20:39:25.452Z,10.50
2017-07-26T20:41:52.904Z,9.33
2017-07-26T20:44:21.259Z,8.63
2017-07-26T20:46:48.686Z,9.37
2017-07-26T20:49:16.131Z,8.40
2017-07-26T20:51:43.575Z,10.13
2017-07-26T20:54:11.019Z,8.40
2017-07-26T20:56:38.476Z,9.30
2017-07-26T20:59:06.011Z,9.60
2017-07-26T21:01:33.458Z,8.97
2017-07-26T21:04:00.892Z,8.80
2017-07-26T21:06:28.349Z,7.97
2017-07-26T21:08:56.560Z,8.27
2017-07-26T21:11:24.009Z,7.13
2017-07-26T21:13:51.497Z,8.07
2017-07-26T21:16:18.936Z,6.50
2017-07-26T21:18:46.368Z,8.10
2017-07-26T21:21:13.917Z,7.30
2017-07-26T21:23:41.400Z,8.47
2017-07-26T21:26:08.848Z,7.50
2017-07-26T21:28:36.317Z,7.40
2017-07-26T21:31:03.776Z,7.10
2017-07-26T21:33:31.248Z,6.43
2017-07-26T21:35:59.444Z,7.10
2017-07-26T21:38:26.889Z,8.77
2017-07-26T21:40:54.421Z,9.60
2017-07-26T21:43:21.920Z,7.30
2017-07-26T21:45:49.394Z,14.00
2017-07-26T21:48:17.623Z,7.13
2017-07-26T21:50:45.072Z,6.67
2017-07-26T21:53:12.517Z,9.33
2017-07-26T21:55:39.973Z,10.00
2017-07-26T21:58:08.236Z,8.83
2017-07-26T22:00:36.453Z,7.30
2017-07-26T22:03:03.880Z,7.37
2017-07-26T22:05:31.322Z,6.50
2017-07-26T22:07:58.752Z,7.33
2017-07-26T22:10:26.227Z,7.90
2017-07-26T22:12:53.795Z,6.97
2017-07-26T22:15:21.361Z,7.70
2017-07-26T22:17:49.568Z,7.50
2017-07-26T22:20:16.996Z,7.30
2017-07-26T22:22:44.478Z,6.67
2017-07-26T22:25:11.916Z,7.00
2017-07-26T22:27:39.373Z,7.70
2017-07-26T22:30:06.822Z,6.73
2017-07-26T22:32:35.056Z,6.67
2017-07-26T22:35:02.552Z,6.73
2017-07-26T22:37:29.985Z,7.40
2017-07-26T22:39:57.454Z,6.47
2017-07-26T22:42:24.916Z,7.10
2017-07-26T22:44:52.372Z,6.90
2017-07-26T22:47:19.801Z,6.83
2017-07-26T22:49:47.271Z,6.53
2017-07-26T22:52:14.725Z,6.67
2017-07-26T22:54:42.940Z,6.57
2017-07-26T22:57:10.411Z,5.80
2017-07-26T22:59:37.843Z,6.60
2017-07-26T23:02:05.292Z,7.63
2017-07-26T23:04:32.741Z,6.47
2017-07-26T23:07:00.201Z,6.60
2017-07-26T23:09:28.457Z,6.50
2017-07-26T23:11:56.672Z,7.40
2017-07-26T23:14:24.125Z,6.70
2017-07-26T23:16:51.561Z,6.50
2017-07-26T23:19:19.053Z,7.43
2017-07-26T23:21:46.585Z,6.63
2017-07-26T23:24:14.051Z,7.20
2017-07-26T23:26:41.509Z,7.50
2017-07-26T23:29:08.949Z,6.23
2017-07-26T23:31:36.460Z,6.93
2017-07-26T23:34:03.908Z,6.37
2017-07-26T23:36:32.161Z,7.27
2017-07-26T23:38:59.650Z,7.33
2017-07-26T23:41:27.107Z,6.60
2017-07-26T23:43:54.552Z,7.30
2017-07-26T23:46:22.000Z,7.00
2017-07-26T23:48:49.443Z,6.77
2017-07-26T23:51:16.920Z,6.97
2017-07-26T23:53:44.368Z,7.33
2017-07-26T23:56:12.578Z,7.67
2017-07-26T23:58:40.074Z,7.80
